Aberlour, United Kingdom
Current Conditions -  °F | °C
As of 7:50 AM on Tuesday 27 Jan 2015 (Local Time) from EGQS Reporting Station
Broken Clouds Broken Clouds  
Wind Chill: 36°   Ceiling: 12000
Heat Index: 43°   Visibility: 6mi
Dew Point: 37°   Wind: 14mph
Humidity: 81%   Direction: 260°W
Pressure: 30.06"   Gusts: NA
Location:  57.53°N, 3.21°W
Report Text: EGQS 270750Z 26012KT 9999 SCT030 BKN120 06/03 Q1018 BLU NOSIG
Loading
Personal Weather Stations






























Interactive Weather Map New forecast layout! Learn more

10-Day Weather Forecast

Advertisements
Track Severe Weather on mobile